createdAt,value
2018-08-18T00:00:08.340Z,3.10
2018-08-18T00:02:37.504Z,2.87
2018-08-18T00:05:06.746Z,2.80
2018-08-18T00:07:34.282Z,3.20
2018-08-18T00:10:02.265Z,2.90
2018-08-18T00:12:30.309Z,2.90
2018-08-18T00:14:57.933Z,2.60
2018-08-18T00:17:25.489Z,2.80
2018-08-18T00:19:53.910Z,2.63
2018-08-18T00:22:21.430Z,2.53
2018-08-18T00:24:54.561Z,2.80
2018-08-18T00:27:22.187Z,2.70
2018-08-18T00:29:49.743Z,2.60
2018-08-18T00:32:17.230Z,2.50
2018-08-18T00:34:51.151Z,2.40
2018-08-18T00:37:18.699Z,2.40
2018-08-18T00:39:46.191Z,2.43
2018-08-18T00:42:14.000Z,2.57
2018-08-18T00:44:41.678Z,2.60
2018-08-18T00:47:09.251Z,2.47
2018-08-18T00:49:36.750Z,2.50
2018-08-18T00:52:04.676Z,2.40
2018-08-18T00:54:32.223Z,2.60
2018-08-18T00:57:02.497Z,2.60
2018-08-18T00:59:37.854Z,2.60
2018-08-18T01:02:05.878Z,2.40
2018-08-18T01:04:39.005Z,2.50
2018-08-18T01:07:11.194Z,2.40
2018-08-18T01:09:41.357Z,2.67
2018-08-18T01:12:09.524Z,2.27
2018-08-18T01:14:37.099Z,2.73
2018-08-18T01:17:04.840Z,2.40
2018-08-18T01:19:32.374Z,2.60
2018-08-18T01:21:59.890Z,2.57
2018-08-18T01:24:27.873Z,2.80
2018-08-18T01:26:55.672Z,2.50
2018-08-18T01:29:23.242Z,2.63
2018-08-18T01:31:50.899Z,2.90
2018-08-18T01:34:18.451Z,2.90
2018-08-18T01:36:45.957Z,2.57
2018-08-18T01:39:14.539Z,2.80
2018-08-18T01:41:42.178Z,2.70
2018-08-18T01:44:18.570Z,2.60
2018-08-18T01:46:48.247Z,2.87
2018-08-18T01:49:38.795Z,2.83
2018-08-18T01:52:13.869Z,2.93
2018-08-18T01:54:41.846Z,2.90
2018-08-18T01:57:10.108Z,2.70
2018-08-18T01:59:38.883Z,2.83
2018-08-18T02:02:11.903Z,2.87
2018-08-18T02:04:39.466Z,3.10
2018-08-18T02:07:29.826Z,3.07
2018-08-18T02:09:57.610Z,3.20
2018-08-18T02:12:25.766Z,2.90
2018-08-18T02:14:53.730Z,2.83
2018-08-18T02:17:25.822Z,3.03
2018-08-18T02:19:54.146Z,3.30
2018-08-18T02:22:22.333Z,3.40
2018-08-18T02:24:49.839Z,3.50
2018-08-18T02:27:17.299Z,3.63
2018-08-18T02:29:56.182Z,3.57
2018-08-18T02:32:30.838Z,3.47
2018-08-18T02:34:58.402Z,3.37
2018-08-18T02:37:26.910Z,3.30
2018-08-18T02:39:54.544Z,3.53
2018-08-18T02:42:22.017Z,3.50
2018-08-18T02:44:49.728Z,3.50
2018-08-18T02:47:17.228Z,3.47
2018-08-18T02:49:45.702Z,3.23
2018-08-18T02:52:20.203Z,3.60
2018-08-18T02:54:48.690Z,3.67
2018-08-18T02:57:16.246Z,3.67
2018-08-18T02:59:43.721Z,3.50
2018-08-18T03:02:11.190Z,3.60
2018-08-18T03:04:44.246Z,3.50
2018-08-18T03:07:11.860Z,3.47
2018-08-18T03:09:39.401Z,3.47
2018-08-18T03:12:07.092Z,3.33
2018-08-18T03:14:34.622Z,3.60
2018-08-18T03:17:02.178Z,3.70
2018-08-18T03:19:30.655Z,3.40
2018-08-18T03:21:58.292Z,3.60
2018-08-18T03:24:25.840Z,3.37
2018-08-18T03:26:55.758Z,3.60
2018-08-18T03:29:24.478Z,3.57
2018-08-18T03:31:52.275Z,3.63
2018-08-18T03:34:19.946Z,3.80
2018-08-18T03:36:51.689Z,3.67
2018-08-18T03:39:25.745Z,3.73
2018-08-18T03:41:54.627Z,3.43
2018-08-18T03:44:22.299Z,3.70
2018-08-18T03:46:49.862Z,3.70
2018-08-18T03:49:17.369Z,3.50
2018-08-18T03:51:46.052Z,3.93
2018-08-18T03:54:13.737Z,3.80
2018-08-18T03:56:41.587Z,4.10
2018-08-18T03:59:09.207Z,4.17
2018-08-18T04:01:56.260Z,3.93
2018-08-18T04:04:25.069Z,3.97
2018-08-18T04:06:53.800Z,3.97
2018-08-18T04:09:22.493Z,3.90
2018-08-18T04:11:50.253Z,4.47
2018-08-18T04:14:27.025Z,4.20
2018-08-18T04:16:54.917Z,4.30
2018-08-18T04:19:22.449Z,4.23
2018-08-18T04:21:52.719Z,4.20
2018-08-18T04:24:20.355Z,4.07
2018-08-18T04:26:49.469Z,4.07
2018-08-18T04:29:20.481Z,4.67
2018-08-18T04:31:48.056Z,4.70
2018-08-18T04:34:15.624Z,4.90
2018-08-18T04:36:43.187Z,4.87
2018-08-18T04:39:12.691Z,4.83
2018-08-18T04:41:41.244Z,4.63
2018-08-18T04:44:08.784Z,4.97
2018-08-18T04:46:36.372Z,5.00
2018-08-18T04:49:04.577Z,5.27
2018-08-18T04:51:32.155Z,5.10
2018-08-18T04:53:59.740Z,5.20
2018-08-18T04:56:27.252Z,5.17
2018-08-18T04:58:54.911Z,5.10
2018-08-18T05:01:22.487Z,5.30
2018-08-18T05:04:12.017Z,5.10
2018-08-18T05:06:41.103Z,5.20
2018-08-18T05:09:09.836Z,5.87
2018-08-18T05:11:37.599Z,5.50
2018-08-18T05:14:05.107Z,6.17
2018-08-18T05:16:32.629Z,5.47
2018-08-18T05:19:00.236Z,5.87
2018-08-18T05:21:27.823Z,5.90
2018-08-18T05:23:55.402Z,5.40
2018-08-18T05:26:22.976Z,6.10
2018-08-18T05:28:50.530Z,6.00
2018-08-18T05:31:19.237Z,5.93
2018-08-18T05:33:46.879Z,6.53
2018-08-18T05:36:14.716Z,6.50
2018-08-18T05:38:42.707Z,6.37
2018-08-18T05:41:10.727Z,6.13
2018-08-18T05:43:38.332Z,6.53
2018-08-18T05:46:05.964Z,6.43
2018-08-18T05:48:33.919Z,6.37
2018-08-18T05:51:01.534Z,6.80
2018-08-18T05:53:30.102Z,6.77
2018-08-18T05:55:58.061Z,7.20
2018-08-18T05:58:25.640Z,6.83
2018-08-18T06:01:06.831Z,6.87
2018-08-18T06:03:34.364Z,6.37
2018-08-18T06:06:01.994Z,7.03
2018-08-18T06:08:30.770Z,7.10
2018-08-18T06:10:58.390Z,7.20
2018-08-18T06:13:25.960Z,8.17
2018-08-18T06:16:08.403Z,7.50
2018-08-18T06:18:37.376Z,7.47
2018-08-18T06:21:05.561Z,8.23
2018-08-18T06:23:33.533Z,6.87
2018-08-18T06:26:02.175Z,8.20
2018-08-18T06:28:30.427Z,7.40
2018-08-18T06:30:58.072Z,7.50
2018-08-18T06:33:25.861Z,8.23
2018-08-18T06:35:53.431Z,7.90
2018-08-18T06:38:21.024Z,7.90
2018-08-18T06:40:53.332Z,8.20
2018-08-18T06:43:20.847Z,8.07
2018-08-18T06:45:48.358Z,8.07
2018-08-18T06:48:21.058Z,7.80
2018-08-18T06:50:48.625Z,6.87
2018-08-18T06:53:16.505Z,7.73
2018-08-18T06:55:44.139Z,7.37
2018-08-18T06:58:11.692Z,7.50
2018-08-18T07:00:39.207Z,7.70
2018-08-18T07:03:18.236Z,6.57
2018-08-18T07:05:45.785Z,7.57
2018-08-18T07:08:13.259Z,7.60
2018-08-18T07:10:40.838Z,7.20
2018-08-18T07:13:09.681Z,7.10
2018-08-18T07:15:38.559Z,7.00
2018-08-18T07:18:09.627Z,7.33
2018-08-18T07:20:37.206Z,7.63
2018-08-18T07:23:04.935Z,7.40
2018-08-18T07:25:32.588Z,7.20
2018-08-18T07:28:05.775Z,6.83
2018-08-18T07:30:33.401Z,7.57
2018-08-18T07:33:01.617Z,7.73
2018-08-18T07:35:29.255Z,7.77
2018-08-18T07:37:56.935Z,8.60
2018-08-18T07:40:31.195Z,8.03
2018-08-18T07:43:01.890Z,8.17
2018-08-18T07:45:29.585Z,7.40
2018-08-18T07:47:57.989Z,8.07
2018-08-18T07:50:25.529Z,7.93
2018-08-18T07:52:53.155Z,8.00
2018-08-18T07:55:25.906Z,7.80
2018-08-18T07:58:01.620Z,7.50
2018-08-18T08:00:31.390Z,7.43
2018-08-18T08:02:59.260Z,8.10
2018-08-18T08:05:26.949Z,7.10
2018-08-18T08:07:54.449Z,8.17
2018-08-18T08:10:22.173Z,7.83
2018-08-18T08:12:49.937Z,7.57
2018-08-18T08:15:17.407Z,7.67
2018-08-18T08:17:46.979Z,7.80
2018-08-18T08:20:15.408Z,7.93
2018-08-18T08:22:43.295Z,7.97
2018-08-18T08:25:10.910Z,7.73
2018-08-18T08:27:38.839Z,7.30
2018-08-18T08:30:07.718Z,8.27
2018-08-18T08:32:35.215Z,7.70
2018-08-18T08:35:03.463Z,7.60
2018-08-18T08:37:31.042Z,7.53
2018-08-18T08:39:58.889Z,7.80
2018-08-18T08:42:26.972Z,8.50
2018-08-18T08:44:55.268Z,7.73
2018-08-18T08:47:22.844Z,7.67
2018-08-18T08:49:51.011Z,7.60
2018-08-18T08:52:18.696Z,7.83
2018-08-18T08:54:46.257Z,7.70
2018-08-18T08:57:13.790Z,7.93
2018-08-18T08:59:41.513Z,7.83
2018-08-18T09:02:12.992Z,8.13
2018-08-18T09:04:40.528Z,7.57
2018-08-18T09:07:09.686Z,8.10
2018-08-18T09:09:37.619Z,8.07
2018-08-18T09:12:05.399Z,7.80
2018-08-18T09:14:32.948Z,7.63
2018-08-18T09:17:00.614Z,8.37
2018-08-18T09:19:28.194Z,8.13
2018-08-18T09:21:59.006Z,7.70
2018-08-18T09:24:28.532Z,8.03
2018-08-18T09:26:57.468Z,7.67
2018-08-18T09:29:25.870Z,7.80
2018-08-18T09:31:53.542Z,7.03
2018-08-18T09:34:21.112Z,7.33
2018-08-18T09:36:48.812Z,7.50
2018-08-18T09:39:23.905Z,7.67
2018-08-18T09:41:51.480Z,8.60
2018-08-18T09:44:26.334Z,8.33
2018-08-18T09:46:54.872Z,8.93
2018-08-18T09:49:22.528Z,8.50
2018-08-18T09:51:50.202Z,9.13
2018-08-18T09:54:17.840Z,8.50
2018-08-18T09:56:45.436Z,8.03
2018-08-18T09:59:13.060Z,7.83
2018-08-18T10:01:40.691Z,8.17
2018-08-18T10:04:08.342Z,8.77
2018-08-18T10:06:35.888Z,8.60
2018-08-18T10:09:06.818Z,8.53
2018-08-18T10:11:34.408Z,8.20
2018-08-18T10:14:02.075Z,7.93
2018-08-18T10:16:29.690Z,8.40
2018-08-18T10:18:58.507Z,7.37
2018-08-18T10:21:26.063Z,7.57
2018-08-18T10:23:53.651Z,6.90
2018-08-18T10:26:21.179Z,6.03
2018-08-18T10:28:55.151Z,6.10
2018-08-18T10:31:22.695Z,5.53
2018-08-18T10:33:50.339Z,7.17
2018-08-18T10:36:17.867Z,6.77
2018-08-18T10:38:45.491Z,7.27
2018-08-18T10:41:13.246Z,6.40
2018-08-18T10:43:40.957Z,5.60
2018-08-18T10:46:08.523Z,5.80
2018-08-18T10:48:36.018Z,5.70
2018-08-18T10:51:23.911Z,6.03
2018-08-18T10:53:52.551Z,6.30
2018-08-18T10:56:20.373Z,6.00
2018-08-18T10:59:05.736Z,6.57
2018-08-18T11:01:33.389Z,6.80
2018-08-18T11:04:01.040Z,6.33
2018-08-18T11:06:32.388Z,6.17
2018-08-18T11:09:00.295Z,6.53
2018-08-18T11:11:27.904Z,6.50
2018-08-18T11:13:55.403Z,6.47
2018-08-18T11:16:23.019Z,6.17
2018-08-18T11:18:50.573Z,6.90
2018-08-18T11:21:22.671Z,6.10
2018-08-18T11:23:54.717Z,6.10
2018-08-18T11:26:24.358Z,6.50
2018-08-18T11:28:52.235Z,5.50
2018-08-18T11:31:19.674Z,5.50
2018-08-18T11:33:47.327Z,5.63
2018-08-18T11:36:14.921Z,6.93
2018-08-18T11:38:42.515Z,4.87
2018-08-18T11:41:10.051Z,5.67
2018-08-18T11:43:44.719Z,5.80
2018-08-18T11:46:12.303Z,6.10
2018-08-18T11:48:39.771Z,6.40
2018-08-18T11:51:07.328Z,11.60
2018-08-18T11:53:40.571Z,6.33
2018-08-18T11:56:08.135Z,6.27
2018-08-18T11:58:35.639Z,6.03
2018-08-18T12:01:03.179Z,6.03
2018-08-18T12:03:32.092Z,5.40
2018-08-18T12:06:01.391Z,5.70
2018-08-18T12:08:35.410Z,6.70
2018-08-18T12:11:05.564Z,5.63
2018-08-18T12:13:38.724Z,5.13
2018-08-18T12:16:14.611Z,5.50
2018-08-18T12:18:43.372Z,6.20
2018-08-18T12:21:11.120Z,4.53
2018-08-18T12:23:41.574Z,4.43
2018-08-18T12:26:12.987Z,4.47
2018-08-18T12:28:44.134Z,4.80
2018-08-18T12:31:13.429Z,4.90
2018-08-18T12:33:41.210Z,4.87
2018-08-18T12:36:08.934Z,4.80
2018-08-18T12:38:39.060Z,4.47
2018-08-18T12:41:07.187Z,4.83
2018-08-18T12:43:37.111Z,5.00
2018-08-18T12:46:11.755Z,4.60
2018-08-18T12:48:40.557Z,4.67
2018-08-18T12:51:09.304Z,4.30
2018-08-18T12:53:42.584Z,4.50
2018-08-18T12:56:11.719Z,4.60
2018-08-18T12:58:39.542Z,4.27
2018-08-18T13:01:06.995Z,4.43
2018-08-18T13:03:34.529Z,4.57
2018-08-18T13:06:02.137Z,4.50
2018-08-18T13:08:29.703Z,4.20
2018-08-18T13:10:57.267Z,4.67
2018-08-18T13:13:24.827Z,4.47
2018-08-18T13:15:54.121Z,4.40
2018-08-18T13:18:22.779Z,4.50
2018-08-18T13:20:51.800Z,4.17
2018-08-18T13:23:21.009Z,4.50
2018-08-18T13:25:49.041Z,4.40
2018-08-18T13:28:16.683Z,5.00
2018-08-18T13:30:44.256Z,4.60
2018-08-18T13:33:11.762Z,4.60
2018-08-18T13:35:39.290Z,4.97
2018-08-18T13:38:13.212Z,4.60
2018-08-18T13:40:40.758Z,5.00
2018-08-18T13:43:08.349Z,4.70
2018-08-18T13:45:41.185Z,4.47
2018-08-18T13:48:10.180Z,4.43
2018-08-18T13:50:37.783Z,4.30
2018-08-18T13:53:05.825Z,4.30
2018-08-18T13:55:41.293Z,4.37
2018-08-18T13:58:11.084Z,4.63
2018-08-18T14:00:38.719Z,4.30
2018-08-18T14:03:23.129Z,4.40
2018-08-18T14:05:51.468Z,4.23
2018-08-18T14:08:18.984Z,3.87
2018-08-18T14:10:46.639Z,4.23
2018-08-18T14:13:14.173Z,4.20
2018-08-18T14:15:46.311Z,3.73
2018-08-18T14:18:13.875Z,4.00
2018-08-18T14:20:56.809Z,3.70
2018-08-18T14:23:24.467Z,3.83
2018-08-18T14:25:52.017Z,4.10
2018-08-18T14:28:19.577Z,3.97
2018-08-18T14:30:47.139Z,3.63
2018-08-18T14:33:14.825Z,3.93
2018-08-18T14:35:42.332Z,4.00
2018-08-18T14:38:16.548Z,4.20
2018-08-18T14:40:45.887Z,3.70
2018-08-18T14:43:17.425Z,3.90
2018-08-18T14:45:45.027Z,3.87
2018-08-18T14:48:12.480Z,3.63
2018-08-18T14:50:40.112Z,3.73
2018-08-18T14:53:13.419Z,3.80
2018-08-18T14:55:40.963Z,3.33
2018-08-18T14:58:08.739Z,3.60
2018-08-18T15:00:36.368Z,3.90
2018-08-18T15:03:04.098Z,3.90
2018-08-18T15:05:37.553Z,3.70
2018-08-18T15:08:05.298Z,3.87
2018-08-18T15:10:44.306Z,3.90
2018-08-18T15:13:12.872Z,3.40
2018-08-18T15:15:40.567Z,3.40
2018-08-18T15:18:10.480Z,3.57
2018-08-18T15:20:38.846Z,3.67
2018-08-18T15:23:07.129Z,3.70
2018-08-18T15:25:35.571Z,4.07
2018-08-18T15:28:08.046Z,3.87
2018-08-18T15:30:36.802Z,3.67
2018-08-18T15:33:04.998Z,3.80
2018-08-18T15:35:34.552Z,3.93
2018-08-18T15:38:02.192Z,3.60
2018-08-18T15:40:29.909Z,3.50
2018-08-18T15:42:58.878Z,3.60
2018-08-18T15:45:27.152Z,3.50
2018-08-18T15:47:56.226Z,3.53
2018-08-18T15:50:24.865Z,3.77
2018-08-18T15:52:53.071Z,3.40
2018-08-18T15:55:20.741Z,3.87
2018-08-18T15:57:48.298Z,3.80
2018-08-18T16:00:33.922Z,3.67
2018-08-18T16:03:01.525Z,3.80
2018-08-18T16:05:30.259Z,3.47
2018-08-18T16:07:57.891Z,3.70
2018-08-18T16:10:25.480Z,3.40
2018-08-18T16:12:53.006Z,3.60
2018-08-18T16:15:21.896Z,3.63
2018-08-18T16:17:49.903Z,3.73
2018-08-18T16:20:20.577Z,3.87
2018-08-18T16:22:48.981Z,4.00
2018-08-18T16:25:28.001Z,3.83
2018-08-18T16:27:55.641Z,4.03
2018-08-18T16:30:23.807Z,4.17
2018-08-18T16:33:24.410Z,3.87
2018-08-18T16:35:51.948Z,3.80
2018-08-18T16:38:19.734Z,3.97
2018-08-18T16:40:47.276Z,4.03
2018-08-18T16:43:15.328Z,4.10
2018-08-18T16:45:42.899Z,4.40
2018-08-18T16:48:11.707Z,4.13
2018-08-18T16:50:40.149Z,4.37
2018-08-18T16:53:09.886Z,4.13
2018-08-18T16:55:39.674Z,4.37
2018-08-18T16:58:07.523Z,4.17
2018-08-18T17:00:53.001Z,4.10
2018-08-18T17:03:25.155Z,3.73
2018-08-18T17:05:52.713Z,4.23
2018-08-18T17:08:20.210Z,4.13
2018-08-18T17:10:47.843Z,4.77
2018-08-18T17:13:15.510Z,4.57
2018-08-18T17:15:43.117Z,4.53
2018-08-18T17:18:10.839Z,4.37
2018-08-18T17:20:39.686Z,4.57
2018-08-18T17:23:07.310Z,4.60
2018-08-18T17:25:39.348Z,4.60
2018-08-18T17:28:07.007Z,4.40
2018-08-18T17:30:34.620Z,3.97
2018-08-18T17:33:02.213Z,4.57
2018-08-18T17:35:29.714Z,4.13
2018-08-18T17:37:57.157Z,4.47
2018-08-18T17:40:24.728Z,4.20
2018-08-18T17:42:52.270Z,4.97
2018-08-18T17:45:19.887Z,4.43
2018-08-18T17:47:54.255Z,4.43
2018-08-18T17:50:21.790Z,4.57
2018-08-18T17:52:49.370Z,4.77
2018-08-18T17:55:18.279Z,4.33
2018-08-18T17:57:45.835Z,4.40
2018-08-18T18:00:16.056Z,4.63
2018-08-18T18:02:49.782Z,4.40
2018-08-18T18:05:23.863Z,4.57
2018-08-18T18:08:01.466Z,4.50
2018-08-18T18:10:33.952Z,4.43
2018-08-18T18:13:04.390Z,4.77
2018-08-18T18:15:38.072Z,4.40
2018-08-18T18:18:07.653Z,4.50
2018-08-18T18:20:35.240Z,4.60
2018-08-18T18:23:02.807Z,4.33
2018-08-18T18:25:30.407Z,4.93
2018-08-18T18:28:01.253Z,4.27
2018-08-18T18:30:29.157Z,4.33
2018-08-18T18:32:57.080Z,4.60
2018-08-18T18:35:25.117Z,4.97
2018-08-18T18:37:55.727Z,4.60
2018-08-18T18:40:23.285Z,4.60
2018-08-18T18:42:50.813Z,5.03
2018-08-18T18:45:18.525Z,5.17
2018-08-18T18:47:46.195Z,5.07
2018-08-18T18:50:20.509Z,5.70
2018-08-18T18:52:48.182Z,5.87
2018-08-18T18:55:16.344Z,6.87
2018-08-18T18:58:05.308Z,7.33
2018-08-18T19:00:34.637Z,7.20
2018-08-18T19:03:02.696Z,7.20
2018-08-18T19:05:31.112Z,6.87
2018-08-18T19:08:10.071Z,7.13
2018-08-18T19:10:37.611Z,6.60
2018-08-18T19:13:05.357Z,6.77
2018-08-18T19:15:32.992Z,6.87
2018-08-18T19:18:00.595Z,6.87
2018-08-18T19:20:29.434Z,7.53
2018-08-18T19:23:29.542Z,7.70
2018-08-18T19:25:57.117Z,7.50
2018-08-18T19:28:24.662Z,9.30
2018-08-18T19:30:52.210Z,8.60
2018-08-18T19:33:20.743Z,8.00
2018-08-18T19:35:49.517Z,8.23
2018-08-18T19:38:17.998Z,8.33
2018-08-18T19:40:46.966Z,8.73
2018-08-18T19:43:18.023Z,8.00
2018-08-18T19:45:45.762Z,7.70
2018-08-18T19:48:16.392Z,7.97
2018-08-18T19:50:52.601Z,7.37
2018-08-18T19:53:21.941Z,8.23
2018-08-18T19:55:49.676Z,7.40
2018-08-18T19:58:17.202Z,7.60
2018-08-18T20:00:44.704Z,7.83
2018-08-18T20:03:13.670Z,7.60
2018-08-18T20:05:41.718Z,7.50
2018-08-18T20:08:09.386Z,7.43
2018-08-18T20:11:00.080Z,7.27
2018-08-18T20:13:29.184Z,7.20
2018-08-18T20:15:58.435Z,7.40
2018-08-18T20:18:26.058Z,7.43
2018-08-18T20:20:56.294Z,7.33
2018-08-18T20:23:23.931Z,7.23
2018-08-18T20:25:51.491Z,7.03
2018-08-18T20:28:19.100Z,7.20
2018-08-18T20:30:46.823Z,7.13
2018-08-18T20:33:14.526Z,7.10
2018-08-18T20:35:42.095Z,7.07
2018-08-18T20:38:09.701Z,7.17
2018-08-18T20:40:37.370Z,6.90
2018-08-18T20:43:05.022Z,6.70
2018-08-18T20:45:38.254Z,7.00
2018-08-18T20:48:06.072Z,6.87
2018-08-18T20:50:33.636Z,6.87
2018-08-18T20:53:07.715Z,7.17
2018-08-18T20:55:35.230Z,6.80
2018-08-18T20:58:02.890Z,7.53
2018-08-18T21:00:30.503Z,7.53
2018-08-18T21:02:58.096Z,7.10
2018-08-18T21:05:25.697Z,7.20
2018-08-18T21:07:53.215Z,6.93
2018-08-18T21:10:20.730Z,7.23
2018-08-18T21:12:48.840Z,7.13
2018-08-18T21:15:17.104Z,7.30
2018-08-18T21:17:44.878Z,7.33
2018-08-18T21:20:15.511Z,7.20
2018-08-18T21:22:43.090Z,7.47
2018-08-18T21:25:12.015Z,6.93
2018-08-18T21:27:40.197Z,7.00
2018-08-18T21:30:12.865Z,7.27
2018-08-18T21:32:40.675Z,6.70
2018-08-18T21:35:08.406Z,6.90
2018-08-18T21:37:35.931Z,6.60
2018-08-18T21:40:03.996Z,6.83
2018-08-18T21:42:31.531Z,6.80
2018-08-18T21:44:59.112Z,7.17
2018-08-18T21:47:26.792Z,6.80
2018-08-18T21:49:54.327Z,6.37
2018-08-18T21:52:21.892Z,7.17
2018-08-18T21:54:49.486Z,7.13
2018-08-18T21:57:17.103Z,6.80
2018-08-18T21:59:51.579Z,7.27
2018-08-18T22:02:31.422Z,6.90
2018-08-18T22:04:59.580Z,7.10
2018-08-18T22:07:36.784Z,6.97
2018-08-18T22:10:06.206Z,6.67
2018-08-18T22:12:33.796Z,6.50
2018-08-18T22:15:05.873Z,6.93
2018-08-18T22:17:33.514Z,6.20
2018-08-18T22:20:01.178Z,6.70
2018-08-18T22:22:28.722Z,6.67
2018-08-18T22:24:56.529Z,6.47
2018-08-18T22:27:24.217Z,6.20
2018-08-18T22:29:51.761Z,6.13
2018-08-18T22:32:22.505Z,6.60
2018-08-18T22:34:50.965Z,6.17
2018-08-18T22:37:18.577Z,6.40
2018-08-18T22:39:46.127Z,6.60
2018-08-18T22:42:13.703Z,6.13
2018-08-18T22:44:41.243Z,6.43
2018-08-18T22:47:08.819Z,6.10
2018-08-18T22:49:36.368Z,6.30
2018-08-18T22:52:04.299Z,6.37
2018-08-18T22:54:31.740Z,6.20
2018-08-18T22:57:01.133Z,5.87
2018-08-18T22:59:29.152Z,6.30
2018-08-18T23:01:56.786Z,6.33
2018-08-18T23:04:30.538Z,6.13
2018-08-18T23:06:58.863Z,6.50
2018-08-18T23:09:27.356Z,6.17
2018-08-18T23:11:58.933Z,6.47
2018-08-18T23:14:33.431Z,6.30
2018-08-18T23:17:01.187Z,6.20
2018-08-18T23:19:29.615Z,6.33
2018-08-18T23:21:57.131Z,6.13
2018-08-18T23:24:31.867Z,6.10
2018-08-18T23:26:59.802Z,6.50
2018-08-18T23:29:27.447Z,6.17
2018-08-18T23:31:55.053Z,6.30
2018-08-18T23:34:22.810Z,6.10
2018-08-18T23:36:50.322Z,6.03
2018-08-18T23:39:17.923Z,6.43
2018-08-18T23:41:45.576Z,6.07
2018-08-18T23:44:13.094Z,6.30
2018-08-18T23:46:41.538Z,6.00
2018-08-18T23:49:09.159Z,6.37
2018-08-18T23:51:41.238Z,6.37
2018-08-18T23:54:16.748Z,6.00
2018-08-18T23:56:44.262Z,5.90
2018-08-18T23:59:11.876Z,5.77
